createdAt,value
2022-08-26T00:01:53.981Z,87.30
2022-08-26T00:04:23.717Z,86.50
2022-08-26T00:06:51.519Z,86.10
2022-08-26T00:09:18.591Z,86.60
2022-08-26T00:11:45.947Z,87.20
2022-08-26T00:14:14.311Z,86.80
2022-08-26T00:16:47.606Z,86.40
2022-08-26T00:19:19.690Z,86.50
2022-08-26T00:21:48.635Z,87.10
2022-08-26T00:24:17.982Z,87.10
2022-08-26T00:26:44.796Z,86.70
2022-08-26T00:29:12.514Z,86.80
2022-08-26T00:31:40.150Z,86.70
2022-08-26T00:34:09.385Z,86.70
2022-08-26T00:36:37.045Z,87.40
2022-08-26T00:39:07.009Z,87.70
2022-08-26T00:41:35.168Z,87.50
2022-08-26T00:44:02.065Z,87.10
2022-08-26T00:46:33.756Z,87.00
2022-08-26T00:49:12.204Z,87.00
2022-08-26T00:51:52.350Z,87.40
2022-08-26T00:54:22.865Z,87.00
2022-08-26T00:57:08.681Z,87.60
2022-08-26T00:59:47.945Z,87.80
2022-08-26T01:02:20.217Z,88.40
2022-08-26T01:04:57.984Z,88.50
2022-08-26T01:07:31.443Z,88.50
2022-08-26T01:10:04.516Z,87.60
2022-08-26T01:12:36.017Z,87.60
2022-08-26T01:15:07.684Z,87.40
2022-08-26T01:17:38.936Z,88.00
2022-08-26T01:20:18.559Z,87.90
2022-08-26T01:23:01.497Z,87.90
2022-08-26T01:25:33.309Z,88.10
2022-08-26T01:28:03.727Z,88.00
2022-08-26T01:30:31.386Z,87.50
2022-08-26T01:33:01.037Z,87.00
2022-08-26T01:35:28.301Z,87.50
2022-08-26T01:37:57.221Z,88.00
2022-08-26T01:40:31.031Z,87.50
2022-08-26T01:42:58.875Z,87.50
2022-08-26T01:45:30.537Z,87.60
2022-08-26T01:47:59.749Z,87.60
2022-08-26T01:50:30.768Z,87.70
2022-08-26T01:53:02.167Z,87.80
2022-08-26T01:55:32.870Z,88.20
2022-08-26T01:58:04.855Z,87.70
2022-08-26T02:00:33.391Z,87.80
2022-08-26T02:03:21.054Z,87.80
2022-08-26T02:05:51.239Z,88.00
2022-08-26T02:08:24.735Z,88.30
2022-08-26T02:10:54.684Z,87.80
2022-08-26T02:13:22.991Z,87.90
2022-08-26T02:15:52.257Z,88.30
2022-08-26T02:18:20.216Z,88.30
2022-08-26T02:20:47.274Z,88.70
2022-08-26T02:23:18.631Z,88.10
2022-08-26T02:25:58.875Z,87.70
2022-08-26T02:28:31.002Z,88.60
2022-08-26T02:30:57.945Z,88.50
2022-08-26T02:33:28.588Z,88.30
2022-08-26T02:35:55.377Z,88.60
2022-08-26T02:38:22.361Z,88.30
2022-08-26T02:40:50.066Z,88.60
2022-08-26T02:43:17.882Z,88.50
2022-08-26T02:45:45.895Z,88.40
2022-08-26T02:48:16.274Z,88.00
2022-08-26T02:50:45.936Z,88.10
2022-08-26T02:53:13.516Z,88.10
2022-08-26T02:55:41.802Z,88.10
2022-08-26T02:58:09.554Z,87.70
2022-08-26T03:00:38.387Z,87.90
2022-08-26T03:03:07.848Z,87.50
2022-08-26T03:05:36.950Z,87.80
2022-08-26T03:08:05.192Z,87.90
2022-08-26T03:10:32.176Z,88.00
2022-08-26T03:13:00.562Z,87.70
2022-08-26T03:15:32.469Z,87.60
2022-08-26T03:18:00.050Z,87.30
2022-08-26T03:20:27.078Z,87.70
2022-08-26T03:22:56.242Z,87.70
2022-08-26T03:25:23.942Z,87.60
2022-08-26T03:27:51.388Z,88.00
2022-08-26T03:30:37.722Z,87.20
2022-08-26T03:33:05.295Z,87.00
2022-08-26T03:35:33.931Z,87.00
2022-08-26T03:38:01.912Z,87.20
2022-08-26T03:40:29.298Z,87.20
2022-08-26T03:42:56.247Z,87.10
2022-08-26T03:45:23.108Z,87.10
2022-08-26T03:47:50.260Z,86.70
2022-08-26T03:50:22.708Z,87.00
2022-08-26T03:52:53.451Z,86.90
2022-08-26T03:55:25.314Z,86.70
2022-08-26T03:57:54.454Z,86.60
2022-08-26T04:00:22.698Z,86.50
2022-08-26T04:02:53.449Z,86.60
2022-08-26T04:05:22.713Z,87.10
2022-08-26T04:07:53.110Z,86.60
2022-08-26T04:10:29.133Z,86.40
2022-08-26T04:12:56.764Z,86.90
2022-08-26T04:15:27.101Z,86.30
2022-08-26T04:17:54.524Z,86.40
2022-08-26T04:20:23.002Z,86.80
2022-08-26T04:22:51.276Z,86.30
2022-08-26T04:25:18.691Z,86.00
2022-08-26T04:27:48.296Z,85.60
2022-08-26T04:30:15.854Z,85.90
2022-08-26T04:32:43.690Z,86.30
2022-08-26T04:35:10.806Z,86.30
2022-08-26T04:37:37.719Z,86.10
2022-08-26T04:40:06.431Z,86.10
2022-08-26T04:42:35.787Z,86.00
2022-08-26T04:45:05.820Z,85.50
2022-08-26T04:47:38.422Z,85.80
2022-08-26T04:50:06.166Z,86.20
2022-08-26T04:52:35.568Z,85.90
2022-08-26T04:55:02.780Z,85.60
2022-08-26T04:57:29.561Z,85.60
2022-08-26T04:59:56.285Z,85.60
2022-08-26T05:02:23.011Z,85.60
2022-08-26T05:04:52.376Z,85.10
2022-08-26T05:07:19.215Z,85.10
2022-08-26T05:09:46.138Z,85.30
2022-08-26T05:12:13.088Z,85.80
2022-08-26T05:14:41.536Z,86.00
2022-08-26T05:17:08.607Z,85.90
2022-08-26T05:19:37.146Z,86.00
2022-08-26T05:22:09.705Z,86.60
2022-08-26T05:24:36.771Z,86.40
2022-08-26T05:27:11.476Z,87.00
2022-08-26T05:29:39.039Z,86.30
2022-08-26T05:32:06.362Z,86.60
2022-08-26T05:34:33.455Z,86.00
2022-08-26T05:37:00.307Z,85.90
2022-08-26T05:39:27.353Z,86.40
2022-08-26T05:41:54.086Z,86.40
2022-08-26T05:44:21.102Z,86.50
2022-08-26T05:46:49.464Z,86.60
2022-08-26T05:49:18.671Z,86.40
2022-08-26T05:51:47.556Z,86.50
2022-08-26T05:54:21.747Z,86.30
2022-08-26T05:56:50.014Z,86.10
2022-08-26T05:59:24.248Z,86.20
2022-08-26T06:01:51.789Z,85.80
2022-08-26T06:04:18.846Z,85.40
2022-08-26T06:06:47.383Z,85.00
2022-08-26T06:09:14.496Z,84.90
2022-08-26T06:11:44.458Z,84.60
2022-08-26T06:14:11.694Z,84.50
2022-08-26T06:16:43.716Z,84.50
2022-08-26T06:19:14.411Z,84.20
2022-08-26T06:21:45.196Z,85.20
2022-08-26T06:24:32.346Z,85.20
2022-08-26T06:27:04.907Z,84.70
2022-08-26T06:29:33.811Z,84.40
2022-08-26T06:32:01.601Z,84.20
2022-08-26T06:34:30.309Z,83.90
2022-08-26T06:37:01.130Z,83.90
2022-08-26T06:39:31.056Z,84.10
2022-08-26T06:41:59.515Z,83.80
2022-08-26T06:44:27.144Z,83.70
2022-08-26T06:46:54.086Z,83.30
2022-08-26T06:49:27.112Z,83.60
2022-08-26T06:51:58.828Z,84.40
2022-08-26T06:54:27.338Z,84.70
2022-08-26T06:56:55.858Z,84.50
2022-08-26T06:59:23.010Z,84.40
2022-08-26T07:01:50.069Z,84.00
2022-08-26T07:04:21.997Z,83.80
2022-08-26T07:06:52.832Z,84.10
2022-08-26T07:09:24.239Z,83.80
2022-08-26T07:11:52.353Z,83.90
2022-08-26T07:14:21.421Z,83.70
2022-08-26T07:16:49.928Z,83.40
2022-08-26T07:19:27.559Z,83.20
2022-08-26T07:22:03.291Z,83.00
2022-08-26T07:24:31.165Z,82.60
2022-08-26T07:27:01.586Z,82.60
2022-08-26T07:29:29.876Z,82.50
2022-08-26T07:31:58.167Z,82.40
2022-08-26T07:34:25.444Z,82.20
2022-08-26T07:36:53.726Z,82.20
2022-08-26T07:39:23.069Z,82.30
2022-08-26T07:41:50.354Z,81.90
2022-08-26T07:44:17.201Z,82.10
2022-08-26T07:46:52.403Z,81.80
2022-08-26T07:49:24.565Z,81.50
2022-08-26T07:51:52.322Z,81.60
2022-08-26T07:54:19.931Z,81.50
2022-08-26T07:56:48.522Z,82.20
2022-08-26T07:59:17.076Z,81.10
2022-08-26T08:01:45.449Z,80.90
2022-08-26T08:04:17.324Z,80.60
2022-08-26T08:06:45.782Z,80.20
2022-08-26T08:09:19.487Z,80.50
2022-08-26T08:11:49.721Z,80.60
2022-08-26T08:14:18.360Z,80.40
2022-08-26T08:16:49.079Z,80.10
2022-08-26T08:19:20.475Z,80.40
2022-08-26T08:21:48.852Z,80.40
2022-08-26T08:24:16.183Z,80.00
2022-08-26T08:26:42.967Z,80.20
2022-08-26T08:29:09.807Z,80.10
2022-08-26T08:31:56.704Z,80.00
2022-08-26T08:34:26.098Z,80.50
2022-08-26T08:36:53.815Z,80.00
2022-08-26T08:39:22.323Z,79.90
2022-08-26T08:42:16.990Z,79.60
2022-08-26T08:44:51.952Z,79.50
2022-08-26T08:47:32.197Z,79.50
2022-08-26T08:50:04.749Z,79.20
2022-08-26T08:52:35.427Z,79.60
2022-08-26T08:55:05.825Z,79.70
2022-08-26T08:57:53.984Z,79.60
2022-08-26T09:00:30.066Z,79.00
2022-08-26T09:03:03.532Z,79.60
2022-08-26T09:05:40.075Z,79.90
2022-08-26T09:08:16.678Z,79.90
2022-08-26T09:10:52.974Z,80.20
2022-08-26T09:13:31.927Z,79.70
2022-08-26T09:16:10.073Z,79.90
2022-08-26T09:18:39.763Z,79.80
2022-08-26T09:21:09.609Z,79.00
2022-08-26T09:23:41.708Z,78.30
2022-08-26T09:26:29.247Z,78.70
2022-08-26T09:28:56.422Z,79.20
2022-08-26T09:31:30.097Z,79.50
2022-08-26T09:34:20.917Z,79.50
2022-08-26T09:36:48.577Z,79.30
2022-08-26T09:39:27.399Z,79.50
2022-08-26T09:42:16.650Z,79.10
2022-08-26T09:44:52.867Z,79.10
2022-08-26T09:47:45.267Z,79.20
2022-08-26T09:50:35.185Z,79.30
2022-08-26T09:53:21.085Z,78.70
2022-08-26T09:56:17.631Z,79.10
2022-08-26T09:58:47.766Z,79.00
2022-08-26T10:01:30.215Z,78.20
2022-08-26T10:04:23.436Z,79.10
2022-08-26T10:07:00.084Z,78.90
2022-08-26T10:09:28.919Z,79.10
2022-08-26T10:12:00.962Z,79.70
2022-08-26T10:14:48.676Z,79.80
2022-08-26T10:17:15.546Z,80.40
2022-08-26T10:19:56.791Z,79.40
2022-08-26T10:22:49.557Z,79.70
2022-08-26T10:25:23.267Z,79.70
2022-08-26T10:28:18.141Z,79.80
2022-08-26T10:31:28.517Z,79.80
2022-08-26T10:34:00.257Z,79.80
2022-08-26T10:37:13.487Z,79.90
2022-08-26T10:39:57.303Z,79.90
2022-08-26T10:42:40.360Z,79.70
2022-08-26T10:48:02.802Z,78.60
2022-08-26T10:50:43.134Z,78.70
2022-08-26T10:53:18.469Z,79.10
2022-08-26T10:56:07.063Z,78.40
2022-08-26T10:59:10.413Z,78.10
2022-08-26T11:01:50.829Z,78.60
2022-08-26T11:04:53.349Z,78.20
2022-08-26T11:07:36.797Z,77.50
2022-08-26T11:10:21.749Z,77.70
2022-08-26T11:12:56.430Z,78.00
2022-08-26T11:15:29.491Z,78.50
2022-08-26T11:18:05.793Z,77.10
2022-08-26T11:20:46.040Z,77.70
2022-08-26T11:23:14.434Z,77.60
2022-08-26T11:25:57.101Z,77.90
2022-08-26T11:28:36.653Z,77.80
2022-08-26T11:31:05.433Z,78.10
2022-08-26T11:33:44.718Z,77.80
2022-08-26T11:36:37.442Z,77.90
2022-08-26T11:39:29.952Z,77.70
2022-08-26T11:42:16.690Z,77.60
2022-08-26T11:44:49.226Z,77.40
2022-08-26T11:47:25.014Z,77.40
2022-08-26T11:50:07.173Z,76.90
2022-08-26T11:52:34.050Z,77.30
2022-08-26T11:55:11.084Z,77.40
2022-08-26T11:57:45.890Z,77.40
2022-08-26T12:00:33.787Z,76.90
2022-08-26T12:03:06.559Z,77.20
2022-08-26T12:05:43.342Z,77.70
2022-08-26T12:08:16.329Z,77.60
2022-08-26T12:10:43.373Z,78.00
2022-08-26T12:13:22.742Z,78.00
2022-08-26T12:15:56.439Z,78.00
2022-08-26T12:18:29.487Z,78.60
2022-08-26T12:20:59.673Z,80.00
2022-08-26T12:23:36.507Z,78.10
2022-08-26T12:26:23.425Z,78.20
2022-08-26T12:28:59.051Z,78.00
2022-08-26T12:31:38.149Z,77.80
2022-08-26T12:34:17.373Z,77.30
2022-08-26T12:36:52.998Z,77.70
2022-08-26T12:39:30.824Z,77.00
2022-08-26T12:42:21.251Z,78.00
2022-08-26T12:45:01.955Z,77.90
2022-08-26T12:47:43.102Z,77.80
2022-08-26T12:50:18.776Z,77.80
2022-08-26T12:53:10.316Z,77.80
2022-08-26T12:55:47.594Z,77.60
2022-08-26T12:58:33.342Z,77.20
2022-08-26T13:01:09.244Z,77.80
2022-08-26T13:03:43.329Z,77.90
2022-08-26T13:06:18.997Z,77.00
2022-08-26T13:08:58.453Z,77.20
2022-08-26T13:11:31.792Z,75.60
2022-08-26T13:14:24.960Z,75.80
2022-08-26T13:16:52.841Z,76.20
2022-08-26T13:19:22.442Z,76.20
2022-08-26T13:21:52.859Z,76.40
2022-08-26T13:24:34.434Z,77.00
2022-08-26T13:27:02.591Z,77.20
2022-08-26T13:29:29.402Z,77.20
2022-08-26T13:31:58.946Z,77.10
2022-08-26T13:34:26.127Z,77.10
2022-08-26T13:36:54.895Z,77.30
2022-08-26T13:39:22.815Z,76.70
2022-08-26T13:41:49.848Z,77.00
2022-08-26T13:44:17.495Z,76.90
2022-08-26T13:49:19.699Z,77.40
2022-08-26T13:51:54.138Z,77.30
2022-08-26T13:54:25.128Z,76.80
2022-08-26T13:56:53.180Z,76.50
2022-08-26T13:59:21.796Z,75.60
2022-08-26T14:01:48.640Z,75.10
2022-08-26T14:04:15.442Z,75.00
2022-08-26T14:06:42.342Z,74.80
2022-08-26T14:09:09.397Z,74.30
2022-08-26T14:11:53.891Z,74.50
2022-08-26T14:14:22.702Z,73.60
2022-08-26T14:16:58.756Z,74.00
2022-08-26T14:19:29.646Z,73.30
2022-08-26T14:21:57.413Z,74.10
2022-08-26T14:24:25.819Z,74.70
2022-08-26T14:26:55.945Z,74.80
2022-08-26T14:29:22.736Z,74.20
2022-08-26T14:31:49.603Z,75.30
2022-08-26T14:34:16.455Z,75.80
2022-08-26T14:36:43.471Z,76.30
2022-08-26T14:39:12.659Z,76.80
2022-08-26T14:41:45.171Z,76.60
2022-08-26T14:44:21.337Z,76.60
2022-08-26T14:46:53.326Z,76.80
2022-08-26T14:49:21.975Z,76.60
2022-08-26T14:51:50.117Z,76.60
2022-08-26T14:54:19.164Z,76.50
2022-08-26T14:56:55.340Z,76.60
2022-08-26T14:59:28.078Z,76.60
2022-08-26T15:01:56.403Z,76.50
2022-08-26T15:04:24.480Z,76.00
2022-08-26T15:06:53.521Z,75.30
2022-08-26T15:09:21.018Z,74.90
2022-08-26T15:11:48.100Z,75.30
2022-08-26T15:14:19.471Z,75.40
2022-08-26T15:17:33.960Z,75.60
2022-08-26T15:20:01.182Z,76.10
2022-08-26T15:22:29.771Z,75.90
2022-08-26T15:24:57.935Z,75.40
2022-08-26T15:27:24.906Z,76.50
2022-08-26T15:29:52.062Z,77.10
2022-08-26T15:32:19.295Z,77.50
2022-08-26T15:34:46.133Z,77.60
2022-08-26T15:37:13.127Z,77.50
2022-08-26T15:39:40.423Z,77.40
2022-08-26T15:42:07.437Z,76.00
2022-08-26T15:44:34.231Z,77.40
2022-08-26T15:47:01.088Z,76.10
2022-08-26T15:49:27.974Z,76.40
2022-08-26T15:51:55.053Z,77.10
2022-08-26T15:54:26.113Z,75.90
2022-08-26T15:56:53.829Z,75.40
2022-08-26T15:59:23.007Z,76.30
2022-08-26T16:01:51.485Z,75.70
2022-08-26T16:04:18.676Z,75.50
2022-08-26T16:06:47.528Z,76.30
2022-08-26T16:09:14.345Z,76.50
2022-08-26T16:11:41.139Z,76.80
2022-08-26T16:14:08.669Z,77.10
2022-08-26T16:16:42.306Z,77.60
2022-08-26T16:19:10.137Z,78.10
2022-08-26T16:21:37.315Z,77.90
2022-08-26T16:24:05.348Z,78.60
2022-08-26T16:26:34.739Z,78.20
2022-08-26T16:29:03.991Z,77.80
2022-08-26T16:31:30.881Z,77.90
2022-08-26T16:33:57.713Z,77.80
2022-08-26T16:36:24.775Z,78.10
2022-08-26T16:38:55.283Z,78.20
2022-08-26T16:41:27.662Z,78.40
2022-08-26T16:43:55.101Z,77.90
2022-08-26T16:46:25.453Z,78.30
2022-08-26T16:48:57.197Z,78.30
2022-08-26T16:51:27.022Z,78.20
2022-08-26T16:53:55.488Z,77.70
2022-08-26T16:56:27.661Z,78.10
2022-08-26T16:59:00.839Z,78.20
2022-08-26T17:01:28.471Z,78.30
2022-08-26T17:03:56.506Z,78.20
2022-08-26T17:06:24.205Z,78.30
2022-08-26T17:08:51.337Z,78.60
2022-08-26T17:11:19.779Z,78.80
2022-08-26T17:13:46.769Z,79.00
2022-08-26T17:16:14.316Z,79.40
2022-08-26T17:18:43.805Z,79.40
2022-08-26T17:21:13.053Z,79.40
2022-08-26T17:23:42.642Z,79.80
2022-08-26T17:26:12.042Z,79.70
2022-08-26T17:31:38.786Z,80.20
2022-08-26T17:34:09.289Z,81.40
2022-08-26T17:36:38.196Z,80.90
2022-08-26T17:39:05.347Z,81.30
2022-08-26T17:41:32.238Z,81.30
2022-08-26T17:43:59.286Z,83.00
2022-08-26T17:46:26.381Z,82.60
2022-08-26T17:48:53.233Z,83.10
2022-08-26T17:51:20.341Z,83.40
2022-08-26T17:53:47.944Z,83.80
2022-08-26T17:56:16.508Z,84.80
2022-08-26T17:58:51.041Z,84.70
2022-08-26T18:01:18.708Z,84.40
2022-08-26T18:03:45.521Z,84.50
2022-08-26T18:06:13.822Z,84.20
2022-08-26T18:08:41.495Z,84.30
2022-08-26T18:11:13.353Z,84.40
2022-08-26T18:13:47.333Z,84.40
2022-08-26T18:16:15.913Z,84.20
2022-08-26T18:18:43.131Z,84.70
2022-08-26T18:21:15.871Z,85.10
2022-08-26T18:23:43.352Z,84.90
2022-08-26T18:26:14.983Z,84.60
2022-08-26T18:28:41.780Z,85.10
2022-08-26T18:31:09.036Z,86.20
2022-08-26T18:33:35.873Z,87.30
2022-08-26T18:36:03.051Z,87.70
2022-08-26T18:38:29.870Z,88.20
2022-08-26T18:40:57.589Z,88.50
2022-08-26T18:46:01.826Z,93.00
2022-08-26T18:48:28.641Z,88.30
2022-08-26T18:50:55.417Z,88.40
2022-08-26T18:53:22.267Z,88.50
2022-08-26T18:55:49.130Z,89.30
2022-08-26T18:58:16.838Z,87.60
2022-08-26T19:00:43.706Z,88.00
2022-08-26T19:03:18.846Z,88.20
2022-08-26T19:05:45.909Z,88.40
2022-08-26T19:08:12.998Z,88.70
2022-08-26T19:10:40.222Z,89.00
2022-08-26T19:13:09.383Z,89.00
2022-08-26T19:15:42.795Z,89.10
2022-08-26T19:18:11.097Z,89.30
2022-08-26T19:20:43.499Z,89.50
2022-08-26T19:23:31.084Z,89.50
2022-08-26T19:25:58.734Z,89.60
2022-08-26T19:28:25.654Z,89.50
2022-08-26T19:30:53.375Z,89.50
2022-08-26T19:33:20.427Z,89.40
2022-08-26T19:35:47.294Z,89.30
2022-08-26T19:38:15.403Z,89.20
2022-08-26T19:40:42.578Z,89.70
2022-08-26T19:43:09.910Z,89.80
2022-08-26T19:45:39.837Z,89.50
2022-08-26T19:48:06.899Z,89.60
2022-08-26T19:50:35.390Z,89.60
2022-08-26T19:53:04.096Z,89.80
2022-08-26T19:55:31.053Z,89.90
2022-08-26T19:57:57.890Z,90.00
2022-08-26T20:00:29.028Z,90.00
2022-08-26T20:02:56.597Z,90.20
2022-08-26T20:05:24.898Z,90.10
2022-08-26T20:07:52.849Z,90.20
2022-08-26T20:10:21.885Z,90.00
2022-08-26T20:12:52.154Z,89.90
2022-08-26T20:15:21.901Z,89.60
2022-08-26T20:17:49.304Z,90.00
2022-08-26T20:20:35.018Z,90.40
2022-08-26T20:23:04.388Z,90.40
2022-08-26T20:25:33.037Z,90.40
2022-08-26T20:28:00.345Z,90.80
2022-08-26T20:30:27.319Z,90.80
2022-08-26T20:32:54.602Z,90.50
2022-08-26T20:35:21.871Z,90.30
2022-08-26T20:37:48.802Z,90.20
2022-08-26T20:40:15.723Z,90.20
2022-08-26T20:42:42.636Z,90.50
2022-08-26T20:45:09.910Z,90.40
2022-08-26T20:47:36.713Z,90.50
2022-08-26T20:50:04.505Z,90.70
2022-08-26T20:52:31.380Z,90.80
2022-08-26T20:54:58.410Z,90.60
2022-08-26T20:57:25.302Z,90.60
2022-08-26T20:59:52.142Z,90.70
2022-08-26T21:02:18.930Z,90.60
2022-08-26T21:04:45.827Z,90.60
2022-08-26T21:07:12.739Z,90.60
2022-08-26T21:09:39.493Z,90.70
2022-08-26T21:12:06.653Z,90.90
2022-08-26T21:14:33.613Z,90.90
2022-08-26T21:17:00.576Z,90.60
2022-08-26T21:19:27.334Z,90.80
2022-08-26T21:21:54.164Z,91.00
2022-08-26T21:24:21.286Z,91.20
2022-08-26T21:26:48.376Z,91.40
2022-08-26T21:29:15.226Z,91.10
2022-08-26T21:31:46.376Z,91.00
2022-08-26T21:34:14.881Z,91.20
2022-08-26T21:36:41.910Z,91.00
2022-08-26T21:39:11.713Z,90.00
2022-08-26T21:41:40.315Z,88.70
2022-08-26T21:44:07.578Z,87.70
2022-08-26T21:46:37.309Z,89.10
2022-08-26T21:49:07.935Z,90.10
2022-08-26T21:51:39.294Z,90.30
2022-08-26T21:54:10.815Z,90.50
2022-08-26T21:56:40.618Z,90.70
2022-08-26T21:59:08.640Z,90.90
2022-08-26T22:01:36.239Z,90.90
2022-08-26T22:04:04.883Z,90.70
2022-08-26T22:06:34.205Z,90.80
2022-08-26T22:09:01.374Z,90.90
2022-08-26T22:11:28.954Z,90.90
2022-08-26T22:13:56.918Z,91.10
2022-08-26T22:16:24.916Z,90.90
2022-08-26T22:18:53.346Z,90.60
2022-08-26T22:21:26.823Z,90.90
2022-08-26T22:23:56.241Z,90.50
2022-08-26T22:26:27.514Z,91.00
2022-08-26T22:28:58.703Z,91.00
2022-08-26T22:31:37.826Z,91.00
2022-08-26T22:34:12.368Z,90.60
2022-08-26T22:36:43.098Z,90.40
2022-08-26T22:39:15.345Z,90.20
2022-08-26T22:41:43.503Z,90.20
2022-08-26T22:44:11.930Z,90.30
2022-08-26T22:46:39.451Z,90.40
2022-08-26T22:49:07.824Z,90.40
2022-08-26T22:51:34.667Z,90.40
2022-08-26T22:54:01.458Z,90.40
2022-08-26T22:56:28.202Z,90.40
2022-08-26T22:58:54.932Z,90.40
2022-08-26T23:01:22.085Z,90.30
2022-08-26T23:03:49.103Z,90.30
2022-08-26T23:06:15.880Z,90.40
2022-08-26T23:08:45.259Z,90.40
2022-08-26T23:11:13.539Z,90.30
2022-08-26T23:13:40.439Z,90.50
2022-08-26T23:16:10.048Z,90.50
2022-08-26T23:18:37.272Z,90.40
2022-08-26T23:21:04.654Z,90.40
2022-08-26T23:23:32.101Z,90.30
2022-08-26T23:25:58.913Z,90.30
2022-08-26T23:28:26.480Z,90.20
2022-08-26T23:30:53.879Z,90.20
2022-08-26T23:33:20.828Z,90.10
2022-08-26T23:35:47.805Z,90.20
2022-08-26T23:38:16.237Z,90.20
2022-08-26T23:40:43.056Z,90.10
2022-08-26T23:43:11.550Z,90.20
2022-08-26T23:45:38.550Z,90.30
2022-08-26T23:48:05.830Z,90.40
2022-08-26T23:50:51.734Z,90.20
2022-08-26T23:53:22.202Z,90.30
2022-08-26T23:55:52.828Z,90.40
2022-08-26T23:58:23.327Z,90.50
